Date,TemperatureHighF,TemperatureAvgF,TemperatureLowF,DewpointHighF,DewpointAvgF,DewpointLowF,HumidityHigh,HumidityAvg,HumidityLow,PressureMaxIn,PressureMinIn,WindSpeedMaxMPH,WindSpeedAvgMPH,GustSpeedMaxMPH,PrecipitationSumIn
2013-1-1,55,40,32,20,13,4,56,34,18,25.60,25.48,17,5,17,0.00
2013-1-2,57,38,29,24,16,10,70,42,26,25.63,25.45,20,5,20,0.00
2013-1-3,34,29,24,25,22,17,94,74,52,25.69,25.57,20,8,20,0.00
2013-1-4,44,29,23,28,22,20,97,79,44,25.69,25.57,11,4,11,0.08
2013-1-5,49,35,24,24,18,11,90,53,28,25.69,25.66,20,6,20,0.04
2013-1-6,56,39,27,25,19,13,68,47,27,25.75,25.57,13,4,13,0.04
2013-1-7,56,41,31,27,21,15,80,46,29,25.60,25.28,20,7,20,0.04
2013-1-8,35,30,28,32,27,23,93,86,78,25.37,25.25,9,4,9,0.00
2013-1-11,59,57,55,22,22,20,26,25,24,25.28,25.22,20,9,22,146.07
2013-1-12,58,43,29,24,17,9,58,36,25,25.42,25.22,20,6,20,0.75
2013-1-13,47,32,24,15,10,4,66,41,25,25.51,25.34,18,5,18,0.75
2013-1-14,80,25,20,20,18,12,89,75,53,25.48,25.34,14,5,14,0.75
2013-1-15,41,27,19,18,15,10,83,61,38,25.63,25.42,58,4,58,0.75
2013-1-16,54,35,19,17,8,-1,70,34,19,25.72,25.60,26,7,26,0.75
2013-1-17,59,44,31,23,16,8,40,32,24,25.87,25.72,17,5,17,0.00
2013-1-18,60,46,35,23,17,0,100,32,22,25.81,25.60,21,8,21,0.75
2013-1-19,70,55,43,23,17,9,30,22,17,25.69,25.51,26,8,27,0.00
2013-1-20,71,54,37,26,18,10,36,24,15,25.69,25.45,20,5,20,0.00
2013-1-21,82,48,36,22,18,0,100,31,21,25.66,25.51,14,5,14,0.00
2013-1-22,77,57,37,31,24,17,46,30,15,25.66,25.51,16,4,16,0.00
2013-1-23,74,59,47,31,26,20,41,29,18,25.75,25.57,25,6,25,0.00
2013-1-24,78,62,49,34,28,23,42,28,15,25.69,25.51,23,7,23,0.00
2013-1-25,79,63,52,35,29,25,37,29,20,25.69,25.51,23,6,23,0.00
2013-1-27,74,66,53,39,30,23,47,27,21,25.57,25.34,30,9,30,0.00
2013-1-28,71,62,54,37,26,20,52,26,17,25.42,25.22,115,13,115,10.38
2013-1-29,64,50,37,23,15,3,35,24,18,25.37,25.16,51,23,51,10.21
2013-1-30,49,39,31,15,7,1,40,26,19,25.57,25.34,35,14,35,0.00
2013-1-31,70,49,32,20,9,-1,27,20,14,25.60,25.60,19,5,20,0.00
2013-2-1,68,53,37,19,12,6,29,20,15,25.63,25.45,20,7,20,0.00
2013-2-2,66,52,41,17,12,4,30,20,15,25.72,25.57,23,6,23,9.71
2013-2-3,66,48,37,25,19,12,43,32,18,25.72,25.42,23,6,23,0.00
2013-2-4,69,60,50,29,23,16,30,24,19,25.42,25.31,33,12,33,0.00
2013-2-5,70,56,43,29,23,14,46,28,20,25.51,25.34,28,7,28,0.00
2013-2-6,73,58,46,32,25,20,38,28,19,25.45,25.28,21,6,21,0.00
2013-2-7,72,55,45,27,20,14,38,25,16,25.60,25.39,24,6,24,0.00
2013-2-8,64,50,35,29,23,13,58,36,24,25.63,25.37,57,8,57,0.24
2013-2-9,74,59,48,32,24,8,50,29,13,25.42,25.13,42,18,42,66.10
2013-2-10,65,49,37,20,13,6,30,23,17,25.45,25.28,26,8,26,0.00
2013-2-11,67,53,38,29,19,9,48,27,18,25.45,25.25,33,7,33,0.46
2013-2-12,54,44,33,27,12,1,49,27,18,25.48,25.28,44,12,44,0.09
2013-2-13,60,43,27,18,10,-1,57,28,16,25.51,25.34,25,6,25,0.00
2013-2-14,66,50,37,17,9,1,22,19,15,25.48,25.34,26,9,26,0.00
2013-2-15,46,37,30,26,19,2,71,52,19,25.75,25.48,27,9,27,0.00
2013-2-16,65,46,28,22,15,5,73,33,15,25.78,25.57,194,6,194,0.00
2013-2-17,70,55,42,20,12,4,23,18,14,25.57,25.28,29,9,29,0.00
2013-2-18,67,57,44,18,12,2,21,17,15,25.48,25.28,39,13,39,0.00
2013-2-19,60,50,43,28,13,3,53,23,16,25.51,25.31,27,7,27,0.00
2013-2-20,76,58,40,31,23,12,63,32,13,25.37,24.92,40,14,40,58.85
2013-2-21,58,45,35,20,13,0,52,29,17,25.34,25.07,50,18,50,0.00
2013-2-22,69,48,32,20,8,-1,25,20,15,25.42,25.31,33,7,33,0.00
2013-2-23,67,51,34,20,12,2,32,21,15,25.48,25.25,28,9,28,0.00
2013-2-24,72,60,40,20,14,0,20,17,14,25.28,24.98,34,13,34,0.00
2013-2-25,53,41,30,15,7,-2,37,25,18,25.39,25.19,44,18,44,0.00
2013-2-26,66,50,32,17,8,-2,23,18,15,25.37,25.19,33,11,33,0.00
2013-2-27,56,41,31,15,6,-5,31,23,16,25.63,25.28,32,10,32,0.00
2013-2-28,62,43,26,18,8,2,36,25,16,25.66,25.66,13,4,14,146.33
2013-3-1,61,47,33,16,8,-1,29,20,16,25.72,25.60,27,8,27,0.00
2013-3-2,74,55,37,21,11,-2,21,18,13,25.78,25.63,18,6,18,0.00
2013-3-3,79,63,47,23,16,7,19,16,12,25.63,25.34,32,10,32,0.00
2013-3-4,78,67,56,23,18,9,17,15,13,25.37,25.22,44,13,44,0.00
2013-3-5,66,48,35,27,19,10,58,33,15,25.75,25.37,34,11,34,0.00
2013-3-6,73,53,39,24,16,12,33,24,14,25.69,25.45,26,7,26,0.00
2013-3-7,81,63,50,27,18,12,26,18,12,25.48,25.34,21,8,21,0.00
2013-3-8,78,66,56,44,28,19,63,26,15,25.45,25.22,37,10,37,0.00
2013-3-9,74,61,44,46,24,5,67,25,16,25.31,25.13,35,12,35,0.00
2013-3-10,54,44,35,18,12,4,41,27,19,25.57,25.31,28,11,28,0.00
2013-3-11,67,51,33,19,12,6,32,22,15,25.57,25.39,26,8,26,0.00
2013-3-12,73,57,44,21,14,2,28,18,13,25.69,25.42,27,7,27,0.00
2013-3-13,79,59,36,28,18,11,40,22,12,25.72,25.57,18,5,18,0.00
2013-3-14,88,65,46,67,20,0,64,19,10,25.66,25.51,20,6,20,0.00
2013-3-15,90,68,50,27,21,15,26,17,10,25.60,25.34,18,5,18,0.00
2013-3-16,85,70,57,25,19,13,17,14,11,25.37,25.16,5,5,5,0.00
2013-3-17,80,69,57,24,18,13,17,15,12,25.31,25.16,40,13,40,0.00
2013-3-18,77,65,56,22,17,12,17,15,13,25.45,25.31,28,10,28,0.00
2013-3-19,84,65,50,24,17,6,31,16,11,25.54,25.28,26,7,26,0.00
2013-3-20,71,54,38,37,33,22,76,47,24,25.69,25.34,24,9,24,0.00
2013-3-21,82,68,53,37,27,16,52,26,11,25.37,25.07,43,12,43,0.00
2013-3-22,81,68,53,24,19,13,27,16,12,25.25,25.10,32,10,32,0.00
2013-3-23,74,63,47,23,18,4,27,18,13,25.42,25.16,47,14,47,0.00
2013-3-24,59,41,25,14,7,-2,48,26,16,25.63,25.34,27,9,27,146.33
2013-3-25,64,45,30,17,8,-2,29,22,16,25.60,25.60,20,8,25,0.00
2013-3-26,68,49,33,18,12,6,32,23,15,25.66,25.51,22,7,22,0.00
2013-3-27,82,62,45,30,22,14,36,23,12,25.57,25.42,21,8,21,0.00
2013-3-28,89,67,54,39,30,24,49,27,13,25.54,25.39,24,6,24,0.00
2013-3-29,91,68,55,43,36,23,58,35,12,25.57,25.39,13,4,13,0.00
2013-3-30,87,70,56,38,25,16,44,21,11,25.57,25.34,6,4,6,0.00
2013-3-31,66,64,60,20,17,16,19,16,15,25.42,25.37,6,3,6,0.00
2013-4-1,92,75,61,44,35,27,54,25,13,25.48,25.28,3,3,3,0.00
2013-4-2,71,59,43,44,39,36,91,49,30,25.45,25.28,172,8,172,0.00
2013-4-3,65,49,39,42,34,27,98,61,28,25.57,25.42,20,8,20,0.00
2013-4-4,81,59,38,33,26,14,64,33,13,25.60,25.48,21,6,21,0.00
2013-4-5,84,67,55,34,27,21,35,24,11,25.57,25.34,26,12,26,0.00
2013-4-6,84,70,54,32,24,14,35,18,11,0.00,40.00,27,10,28,0.00
2013-4-7,87,72,54,26,19,11,18,14,11,25.37,25.22,31,8,31,0.00
2013-4-8,85,73,58,25,20,14,17,14,11,25.25,25.04,34,10,34,0.00
2013-4-9,86,70,52,25,20,14,23,15,11,25.25,24.98,38,18,38,303.81
2013-4-10,62,50,37,28,18,11,42,29,21,25.39,25.25,24,8,24,0.00
2013-4-11,72,56,41,23,16,9,32,22,14,25.39,25.19,40,10,40,0.00
2013-4-12,85,66,48,30,19,8,28,17,11,25.34,25.16,27,9,27,0.00
2013-4-13,84,61,52,42,34,27,57,37,21,25.28,25.16,32,7,32,0.00
2013-4-14,82,68,54,32,25,16,42,22,12,25.28,25.10,33,12,231,0.00
2013-4-15,87,72,58,28,20,14,19,14,11,25.28,25.16,6,6,6,0.00
2013-4-16,90,76,60,53,25,14,57,17,10,25.34,25.16,28,9,28,0.00
2013-4-17,87,77,61,55,28,18,79,22,11,25.28,25.10,33,13,33,0.00
2013-4-18,68,55,42,27,19,8,50,25,15,25.54,25.22,24,10,24,0.00
2013-4-19,75,54,33,22,15,8,35,22,13,25.48,25.45,22,5,22,0.00
2013-4-20,81,64,48,25,18,10,26,18,12,25.51,25.22,34,10,34,0.00
2013-4-21,91,70,52,27,18,7,18,14,10,25.42,25.39,21,6,25,0.00
2013-4-22,92,74,55,32,21,11,20,14,10,25.45,25.28,29,7,29,0.00
2013-4-23,68,58,46,29,25,20,46,28,20,25.51,25.28,28,11,28,0.00
2013-4-24,71,49,30,31,23,17,64,40,22,25.66,25.48,27,8,27,0.00
2013-4-25,83,61,43,37,31,23,53,34,16,25.60,25.34,30,10,30,0.00
2013-4-26,91,71,54,37,28,15,48,24,10,25.57,25.42,31,8,31,0.00
2013-4-27,82,67,51,47,30,18,56,26,17,25.60,25.42,26,8,26,0.00
2013-4-28,85,66,55,53,44,23,79,49,15,25.54,25.37,44,7,44,0.00
2013-4-29,93,70,50,44,34,23,71,33,11,25.45,25.22,23,4,23,0.00
2013-4-30,99,77,60,35,28,20,28,17,10,25.31,25.16,27,10,27,0.00
2013-5-1,100,79,63,35,24,16,18,13,9,25.45,25.22,36,6,36,0.00
2013-5-2,67,44,36,36,24,14,97,50,17,25.87,25.42,32,20,32,0.00
2013-5-3,72,46,28,21,16,13,57,35,14,25.84,25.60,15,5,15,0.00
2013-5-5,64,64,63,17,17,16,16,16,15,25.48,25.45,33,18,33,1.00
2013-5-6,87,69,56,34,25,16,32,20,12,25.48,25.31,33,10,33,0.67
2013-5-7,88,71,56,36,28,17,37,22,11,25.48,25.31,28,7,28,0.00
2013-5-8,90,73,58,43,30,18,57,24,10,25.42,25.31,27,7,27,0.00
2013-5-9,85,72,59,30,21,14,22,15,11,25.45,25.28,38,9,38,0.04
2013-5-10,73,62,49,48,34,22,91,39,20,25.66,25.39,58,10,229,0.00
2013-5-11,70,58,44,47,40,32,97,57,28,25.72,25.60,25,8,115,0.00
2013-5-12,76,62,49,38,31,25,58,35,18,25.75,25.57,26,8,26,0.00
2013-5-13,82,66,48,40,32,26,47,30,17,25.75,25.57,24,6,229,0.00
2013-5-14,87,68,54,47,37,24,70,35,15,25.63,25.39,42,10,42,0.04
2013-5-15,87,72,56,43,32,24,60,26,13,25.54,25.31,34,12,34,0.13
2013-5-16,96,82,70,33,27,18,17,14,10,25.42,25.28,32,9,32,0.00
2013-5-17,100,83,67,35,26,18,15,13,10,25.37,25.25,28,7,28,0.00
2013-5-18,95,80,67,33,24,17,15,13,10,25.39,25.22,28,8,28,0.09
2013-5-19,91,78,64,32,23,16,16,13,10,25.39,25.22,32,10,32,0.00
2013-5-20,93,80,64,33,24,16,16,13,10,25.42,25.22,30,7,30,1.80
2013-5-21,96,76,63,33,22,16,16,13,10,25.48,25.25,26,8,26,0.00
2013-5-22,96,78,61,44,31,17,36,20,11,25.42,25.22,23,8,23,0.00
2013-5-23,98,75,60,58,46,30,86,43,11,25.63,25.28,35,9,35,0.37
2013-5-24,94,73,61,56,47,40,84,43,17,25.54,25.39,29,8,29,0.38
2013-5-25,97,76,62,55,46,31,77,40,13,25.57,25.39,26,9,26,0.00
2013-5-26,99,84,64,55,41,30,67,26,10,25.60,25.34,25,9,25,0.00
2013-5-27,100,81,68,54,44,30,57,33,10,25.42,25.22,29,12,29,0.12
2013-5-28,94,79,68,58,46,31,68,38,11,25.31,25.13,31,10,31,0.21
2013-5-29,92,77,64,58,39,20,76,34,10,25.31,25.16,35,10,35,0.05
2013-5-30,94,80,66,33,25,17,15,13,11,25.39,25.25,28,8,28,0.00
2013-5-31,101,84,66,35,27,17,15,12,10,25.31,25.31,24,6,26,0.00
2013-6-1,94,81,68,52,28,18,47,15,10,25.48,25.28,30,10,30,0.00
2013-6-2,87,75,65,55,49,41,63,42,25,25.57,25.34,181,12,181,0.20
2013-6-3,94,79,60,58,42,35,92,32,14,25.63,25.34,34,7,34,0.17
2013-6-4,101,83,71,50,40,32,44,25,10,25.45,25.31,30,9,30,0.21
2013-6-5,105,86,70,39,34,28,32,16,9,25.39,25.28,20,7,20,0.12
2013-6-6,85,74,60,50,43,34,57,34,21,25.48,25.31,23,11,23,0.00
2013-6-7,72,66,62,55,52,48,71,62,46,25.48,25.42,13,5,13,0.00
2013-6-9,96,85,60,52,40,30,75,22,11,25.48,25.39,29,13,29,3.55
2013-6-10,101,82,66,57,42,28,69,30,10,25.54,25.39,26,9,26,0.00
2013-6-11,101,81,66,52,42,30,61,32,10,25.54,25.39,115,10,115,0.04
2013-6-12,102,81,66,54,46,32,64,35,10,25.54,25.39,115,9,115,0.00
2013-6-13,92,70,63,60,55,44,85,63,21,25.51,25.42,25,6,25,0.00
2013-6-14,90,68,63,62,58,47,90,75,24,25.48,25.34,24,4,24,0.08
2013-6-15,95,77,62,61,53,38,93,51,17,25.51,25.39,15,5,229,0.00
2013-6-16,101,81,66,60,52,38,75,44,13,25.48,25.34,17,5,17,0.00
2013-6-17,101,78,68,63,50,40,72,40,15,25.51,25.37,28,4,28,0.46
2013-6-18,97,81,61,62,52,45,80,41,20,25.54,25.31,20,7,20,0.63
2013-6-19,96,81,68,59,49,30,73,40,11,25.42,25.31,38,10,38,1.38
2013-6-20,94,80,69,57,48,32,58,36,12,25.51,25.34,33,10,33,0.46
2013-6-21,99,78,66,61,50,37,72,42,16,25.54,25.34,27,6,27,0.50
2013-6-22,105,78,68,58,50,34,68,42,11,25.48,25.31,18,6,18,0.50
2013-6-23,103,81,70,54,48,33,55,35,9,25.42,25.31,26,9,26,0.46
2013-6-24,98,80,70,53,48,40,53,36,16,25.48,25.31,26,9,26,0.46
2013-6-25,105,83,71,55,49,36,56,35,12,25.39,25.31,17,6,17,0.00
2013-6-26,87,76,73,57,52,41,58,44,22,25.37,25.34,21,6,21,0.00
2013-7-1,64,64,63,48,48,48,57,57,57,0.00,40.00,5,4,6,0.00
2013-7-3,87,78,71,36,32,27,22,18,16,25.54,25.45,13,7,14,0.00
2013-7-4,95,82,70,39,34,30,31,19,11,25.51,25.37,25,11,25,0.00
2013-7-5,101,81,67,43,38,30,37,24,10,25.48,25.34,27,9,27,0.04
2013-7-6,103,81,68,80,39,0,100,24,10,25.45,25.31,26,9,26,0.00
2013-7-7,96,80,66,47,39,31,39,25,11,25.51,25.37,26,8,26,0.00
2013-7-8,92,79,67,54,48,0,57,36,18,25.60,25.45,25,9,25,0.00
2013-7-9,94,74,65,56,51,44,69,47,20,25.63,25.57,20,6,20,0.00
2013-7-10,82,82,82,47,47,47,30,30,30,0.00,40.00,5,5,8,0.00
2013-7-11,0,0,0,0,0,0,0,0,100,25.42,25.42,0,0,0,0.00
2013-7-12,0,0,0,0,0,0,0,0,100,25.42,25.42,0,0,0,0.00